sensor_id;sensor_type;location;lat;lon;timestamp;temperature;humidity
5128;DHT22;2582;48.770;9.190;2023-01-30T00:01:41;1.00;99.90
5128;DHT22;2582;48.770;9.190;2023-01-30T00:04:06;1.10;99.90
5128;DHT22;2582;48.770;9.190;2023-01-30T00:06:32;1.10;99.90
5128;DHT22;2582;48.770;9.190;2023-01-30T00:08:58;1.10;99.90
5128;DHT22;2582;48.770;9.190;2023-01-30T00:11:24;1.00;99.90
5128;DHT22;2582;48.770;9.190;2023-01-30T00:13:50;1.10;99.90
5128;DHT22;2582;48.770;9.190;2023-01-30T00:16:17;1.10;99.90
5128;DHT22;2582;48.770;9.190;2023-01-30T00:18:43;1.20;99.90
5128;DHT22;2582;48.770;9.190;2023-01-30T00:21:12;1.20;99.90
5128;DHT22;2582;48.770;9.190;2023-01-30T00:23:38;1.20;99.90
5128;DHT22;2582;48.770;9.190;2023-01-30T00:26:04;1.10;99.90
5128;DHT22;2582;48.770;9.190;2023-01-30T00:28:30;1.10;99.90
5128;DHT22;2582;48.770;9.190;2023-01-30T00:30:56;1.10;99.90
5128;DHT22;2582;48.770;9.190;2023-01-30T00:33:24;1.00;99.90
5128;DHT22;2582;48.770;9.190;2023-01-30T00:35:51;1.20;99.90
5128;DHT22;2582;48.770;9.190;2023-01-30T00:38:18;1.30;99.90
5128;DHT22;2582;48.770;9.190;2023-01-30T00:40:43;1.40;99.90
5128;DHT22;2582;48.770;9.190;2023-01-30T00:43:14;1.30;99.90
5128;DHT22;2582;48.770;9.190;2023-01-30T00:45:59;1.30;99.90
5128;DHT22;2582;48.770;9.190;2023-01-30T00:48:43;1.20;99.90
5128;DHT22;2582;48.770;9.190;2023-01-30T00:51:09;1.30;99.90
5128;DHT22;2582;48.770;9.190;2023-01-30T00:53:34;1.30;99.90
5128;DHT22;2582;48.770;9.190;2023-01-30T00:56:01;1.30;99.90
5128;DHT22;2582;48.770;9.190;2023-01-30T00:58:26;1.10;99.90
5128;DHT22;2582;48.770;9.190;2023-01-30T01:00:52;0.80;99.90
5128;DHT22;2582;48.770;9.190;2023-01-30T01:03:18;0.80;99.90
5128;DHT22;2582;48.770;9.190;2023-01-30T01:05:44;0.90;99.90
5128;DHT22;2582;48.770;9.190;2023-01-30T01:08:10;0.90;99.90
5128;DHT22;2582;48.770;9.190;2023-01-30T01:10:36;0.70;99.90
5128;DHT22;2582;48.770;9.190;2023-01-30T01:13:02;0.80;99.90
5128;DHT22;2582;48.770;9.190;2023-01-30T01:15:27;1.00;99.90
5128;DHT22;2582;48.770;9.190;2023-01-30T01:17:54;1.20;99.90
5128;DHT22;2582;48.770;9.190;2023-01-30T01:20:20;1.30;99.90
5128;DHT22;2582;48.770;9.190;2023-01-30T01:22:46;1.20;99.90
5128;DHT22;2582;48.770;9.190;2023-01-30T01:25:15;1.20;99.90
5128;DHT22;2582;48.770;9.190;2023-01-30T01:27:41;1.20;99.90
5128;DHT22;2582;48.770;9.190;2023-01-30T01:30:07;1.10;99.90
5128;DHT22;2582;48.770;9.190;2023-01-30T01:32:33;1.10;99.90
5128;DHT22;2582;48.770;9.190;2023-01-30T01:34:59;1.10;99.90
5128;DHT22;2582;48.770;9.190;2023-01-30T01:37:25;1.10;99.90
5128;DHT22;2582;48.770;9.190;2023-01-30T01:39:50;1.10;99.90
5128;DHT22;2582;48.770;9.190;2023-01-30T01:42:36;1.00;99.90
5128;DHT22;2582;48.770;9.190;2023-01-30T01:47:38;0.90;99.90
5128;DHT22;2582;48.770;9.190;2023-01-30T01:50:09;0.80;99.90
5128;DHT22;2582;48.770;9.190;2023-01-30T01:52:37;0.90;99.90
5128;DHT22;2582;48.770;9.190;2023-01-30T01:55:05;0.80;99.90
5128;DHT22;2582;48.770;9.190;2023-01-30T01:57:49;0.90;99.90
5128;DHT22;2582;48.770;9.190;2023-01-30T02:00:17;1.00;99.90
5128;DHT22;2582;48.770;9.190;2023-01-30T02:02:57;1.10;99.90
5128;DHT22;2582;48.770;9.190;2023-01-30T02:05:30;1.00;99.90
5128;DHT22;2582;48.770;9.190;2023-01-30T02:08:04;1.00;99.90
5128;DHT22;2582;48.770;9.190;2023-01-30T02:10:57;1.00;99.90
5128;DHT22;2582;48.770;9.190;2023-01-30T02:13:24;0.90;99.90
5128;DHT22;2582;48.770;9.190;2023-01-30T02:15:50;0.90;99.90
5128;DHT22;2582;48.770;9.190;2023-01-30T02:18:17;1.00;99.90
5128;DHT22;2582;48.770;9.190;2023-01-30T02:27:03;1.00;99.90
5128;DHT22;2582;48.770;9.190;2023-01-30T02:32:13;0.70;99.90
5128;DHT22;2582;48.770;9.190;2023-01-30T02:37:48;0.70;99.90
5128;DHT22;2582;48.770;9.190;2023-01-30T02:48:36;0.70;99.90
5128;DHT22;2582;48.770;9.190;2023-01-30T02:51:09;0.60;99.90
5128;DHT22;2582;48.770;9.190;2023-01-30T02:53:36;0.60;99.90
5128;DHT22;2582;48.770;9.190;2023-01-30T02:56:02;0.70;99.90
5128;DHT22;2582;48.770;9.190;2023-01-30T02:58:33;0.80;99.90
5128;DHT22;2582;48.770;9.190;2023-01-30T03:01:11;0.80;99.90
5128;DHT22;2582;48.770;9.190;2023-01-30T03:10:15;0.50;99.90
5128;DHT22;2582;48.770;9.190;2023-01-30T03:14:54;0.40;99.90
5128;DHT22;2582;48.770;9.190;2023-01-30T03:17:23;0.50;99.90
5128;DHT22;2582;48.770;9.190;2023-01-30T03:19:52;0.50;99.90
5128;DHT22;2582;48.770;9.190;2023-01-30T03:22:19;0.40;99.90
5128;DHT22;2582;48.770;9.190;2023-01-30T03:24:45;0.50;99.90
5128;DHT22;2582;48.770;9.190;2023-01-30T03:27:11;0.50;99.90
5128;DHT22;2582;48.770;9.190;2023-01-30T03:29:38;0.40;99.90
5128;DHT22;2582;48.770;9.190;2023-01-30T03:32:04;0.40;99.90
5128;DHT22;2582;48.770;9.190;2023-01-30T03:34:29;0.50;99.90
5128;DHT22;2582;48.770;9.190;2023-01-30T03:36:55;0.50;99.90
5128;DHT22;2582;48.770;9.190;2023-01-30T03:39:22;0.50;99.90
5128;DHT22;2582;48.770;9.190;2023-01-30T03:41:49;0.60;99.90
5128;DHT22;2582;48.770;9.190;2023-01-30T03:44:14;0.60;99.90
5128;DHT22;2582;48.770;9.190;2023-01-30T03:46:40;0.60;99.90
5128;DHT22;2582;48.770;9.190;2023-01-30T03:49:06;0.70;99.90
5128;DHT22;2582;48.770;9.190;2023-01-30T03:51:31;0.80;99.90
5128;DHT22;2582;48.770;9.190;2023-01-30T03:53:57;0.90;99.90
5128;DHT22;2582;48.770;9.190;2023-01-30T03:56:22;0.90;99.90
5128;DHT22;2582;48.770;9.190;2023-01-30T03:58:48;0.90;99.90
5128;DHT22;2582;48.770;9.190;2023-01-30T04:01:13;1.00;99.90
5128;DHT22;2582;48.770;9.190;2023-01-30T04:03:39;1.10;99.90
5128;DHT22;2582;48.770;9.190;2023-01-30T04:06:04;1.10;99.90
5128;DHT22;2582;48.770;9.190;2023-01-30T04:08:30;1.10;99.90
5128;DHT22;2582;48.770;9.190;2023-01-30T04:10:55;1.30;99.90
5128;DHT22;2582;48.770;9.190;2023-01-30T04:13:21;1.40;99.90
5128;DHT22;2582;48.770;9.190;2023-01-30T04:15:46;1.40;99.90
5128;DHT22;2582;48.770;9.190;2023-01-30T04:18:12;1.50;99.90
5128;DHT22;2582;48.770;9.190;2023-01-30T04:20:37;1.50;99.90
5128;DHT22;2582;48.770;9.190;2023-01-30T04:23:03;1.60;99.90
5128;DHT22;2582;48.770;9.190;2023-01-30T04:25:29;1.60;99.90
5128;DHT22;2582;48.770;9.190;2023-01-30T04:27:54;1.70;99.90
5128;DHT22;2582;48.770;9.190;2023-01-30T04:30:20;1.70;99.90
5128;DHT22;2582;48.770;9.190;2023-01-30T04:32:45;1.70;99.90
5128;DHT22;2582;48.770;9.190;2023-01-30T04:35:11;1.60;99.90
5128;DHT22;2582;48.770;9.190;2023-01-30T04:37:37;1.60;99.90
5128;DHT22;2582;48.770;9.190;2023-01-30T04:40:02;1.70;99.90
5128;DHT22;2582;48.770;9.190;2023-01-30T04:42:28;1.70;99.90
5128;DHT22;2582;48.770;9.190;2023-01-30T04:44:54;1.70;99.90
5128;DHT22;2582;48.770;9.190;2023-01-30T04:47:19;1.70;99.90
5128;DHT22;2582;48.770;9.190;2023-01-30T04:49:45;1.90;99.90
5128;DHT22;2582;48.770;9.190;2023-01-30T04:52:10;1.90;99.90
5128;DHT22;2582;48.770;9.190;2023-01-30T04:54:36;2.00;99.90
5128;DHT22;2582;48.770;9.190;2023-01-30T04:57:01;2.10;99.90
5128;DHT22;2582;48.770;9.190;2023-01-30T04:59:27;2.10;99.90
5128;DHT22;2582;48.770;9.190;2023-01-30T05:01:53;2.10;99.90
5128;DHT22;2582;48.770;9.190;2023-01-30T05:04:19;2.20;99.90
5128;DHT22;2582;48.770;9.190;2023-01-30T05:06:45;2.10;99.90
5128;DHT22;2582;48.770;9.190;2023-01-30T05:09:10;2.00;99.90
5128;DHT22;2582;48.770;9.190;2023-01-30T05:11:36;2.00;99.90
5128;DHT22;2582;48.770;9.190;2023-01-30T05:14:02;2.00;99.90
5128;DHT22;2582;48.770;9.190;2023-01-30T05:16:28;2.20;99.90
5128;DHT22;2582;48.770;9.190;2023-01-30T05:18:53;2.30;99.90
5128;DHT22;2582;48.770;9.190;2023-01-30T05:21:21;2.40;99.90
5128;DHT22;2582;48.770;9.190;2023-01-30T05:23:48;2.40;99.90
5128;DHT22;2582;48.770;9.190;2023-01-30T05:26:14;2.30;99.90
5128;DHT22;2582;48.770;9.190;2023-01-30T05:28:40;2.30;99.90
5128;DHT22;2582;48.770;9.190;2023-01-30T05:31:12;2.30;99.90
5128;DHT22;2582;48.770;9.190;2023-01-30T05:33:39;2.20;99.90
5128;DHT22;2582;48.770;9.190;2023-01-30T05:36:05;2.10;99.90
5128;DHT22;2582;48.770;9.190;2023-01-30T05:38:31;2.10;99.90
5128;DHT22;2582;48.770;9.190;2023-01-30T05:41:15;2.20;99.90
5128;DHT22;2582;48.770;9.190;2023-01-30T05:43:41;2.30;99.90
5128;DHT22;2582;48.770;9.190;2023-01-30T05:46:08;2.00;99.90
5128;DHT22;2582;48.770;9.190;2023-01-30T05:48:34;2.00;99.90
5128;DHT22;2582;48.770;9.190;2023-01-30T05:51:00;2.00;99.90
5128;DHT22;2582;48.770;9.190;2023-01-30T05:53:31;2.10;99.90
5128;DHT22;2582;48.770;9.190;2023-01-30T05:56:00;2.10;99.90
5128;DHT22;2582;48.770;9.190;2023-01-30T05:58:27;2.10;99.90
5128;DHT22;2582;48.770;9.190;2023-01-30T06:00:53;2.10;99.90
5128;DHT22;2582;48.770;9.190;2023-01-30T06:03:19;2.20;99.90
5128;DHT22;2582;48.770;9.190;2023-01-30T06:05:45;2.20;99.90
5128;DHT22;2582;48.770;9.190;2023-01-30T06:08:11;2.00;99.90
5128;DHT22;2582;48.770;9.190;2023-01-30T06:10:36;2.10;99.90
5128;DHT22;2582;48.770;9.190;2023-01-30T06:13:02;2.10;99.90
5128;DHT22;2582;48.770;9.190;2023-01-30T06:15:28;2.00;99.90
5128;DHT22;2582;48.770;9.190;2023-01-30T06:17:53;1.90;99.90
5128;DHT22;2582;48.770;9.190;2023-01-30T06:20:19;2.00;99.90
5128;DHT22;2582;48.770;9.190;2023-01-30T06:22:46;2.00;99.90
5128;DHT22;2582;48.770;9.190;2023-01-30T06:25:11;2.00;99.90
5128;DHT22;2582;48.770;9.190;2023-01-30T06:27:37;2.10;99.90
5128;DHT22;2582;48.770;9.190;2023-01-30T06:30:03;1.90;99.90
5128;DHT22;2582;48.770;9.190;2023-01-30T06:32:28;2.00;99.90
5128;DHT22;2582;48.770;9.190;2023-01-30T06:34:54;1.90;99.90
5128;DHT22;2582;48.770;9.190;2023-01-30T06:37:20;2.00;99.90
5128;DHT22;2582;48.770;9.190;2023-01-30T06:39:45;1.80;99.90
5128;DHT22;2582;48.770;9.190;2023-01-30T06:42:11;1.90;99.90
5128;DHT22;2582;48.770;9.190;2023-01-30T06:44:36;1.90;99.90
5128;DHT22;2582;48.770;9.190;2023-01-30T06:47:02;2.00;99.90
5128;DHT22;2582;48.770;9.190;2023-01-30T06:49:27;2.00;99.90
5128;DHT22;2582;48.770;9.190;2023-01-30T06:51:53;2.00;99.90
5128;DHT22;2582;48.770;9.190;2023-01-30T06:54:18;1.90;99.90
5128;DHT22;2582;48.770;9.190;2023-01-30T06:56:44;1.90;99.90
5128;DHT22;2582;48.770;9.190;2023-01-30T06:59:09;2.10;99.90
5128;DHT22;2582;48.770;9.190;2023-01-30T07:01:35;2.10;99.90
5128;DHT22;2582;48.770;9.190;2023-01-30T07:04:01;2.20;99.90
5128;DHT22;2582;48.770;9.190;2023-01-30T07:06:27;2.10;99.90
5128;DHT22;2582;48.770;9.190;2023-01-30T07:08:52;2.10;99.90
5128;DHT22;2582;48.770;9.190;2023-01-30T07:11:20;2.10;99.90
5128;DHT22;2582;48.770;9.190;2023-01-30T07:13:46;2.20;99.90
5128;DHT22;2582;48.770;9.190;2023-01-30T07:16:11;2.30;99.90
5128;DHT22;2582;48.770;9.190;2023-01-30T07:18:37;2.40;99.90
5128;DHT22;2582;48.770;9.190;2023-01-30T07:21:02;2.30;99.90
5128;DHT22;2582;48.770;9.190;2023-01-30T07:23:28;2.20;99.90
5128;DHT22;2582;48.770;9.190;2023-01-30T07:25:53;2.30;99.90
5128;DHT22;2582;48.770;9.190;2023-01-30T07:28:19;2.40;99.90
5128;DHT22;2582;48.770;9.190;2023-01-30T07:30:45;2.50;99.90
5128;DHT22;2582;48.770;9.190;2023-01-30T07:33:10;2.60;99.90
5128;DHT22;2582;48.770;9.190;2023-01-30T07:35:37;2.70;99.90
5128;DHT22;2582;48.770;9.190;2023-01-30T07:38:03;2.70;99.90
5128;DHT22;2582;48.770;9.190;2023-01-30T07:40:29;2.60;99.90
5128;DHT22;2582;48.770;9.190;2023-01-30T07:43:06;2.60;99.90
5128;DHT22;2582;48.770;9.190;2023-01-30T07:45:47;2.70;99.90
5128;DHT22;2582;48.770;9.190;2023-01-30T07:48:21;2.70;99.90
5128;DHT22;2582;48.770;9.190;2023-01-30T07:50:47;2.90;99.90
5128;DHT22;2582;48.770;9.190;2023-01-30T07:53:15;3.10;99.90
5128;DHT22;2582;48.770;9.190;2023-01-30T07:55:41;3.10;99.90
5128;DHT22;2582;48.770;9.190;2023-01-30T07:58:09;3.10;99.90
5128;DHT22;2582;48.770;9.190;2023-01-30T08:00:35;3.20;99.90
5128;DHT22;2582;48.770;9.190;2023-01-30T08:03:00;3.20;99.90
5128;DHT22;2582;48.770;9.190;2023-01-30T08:05:26;3.20;99.90
5128;DHT22;2582;48.770;9.190;2023-01-30T08:07:54;3.20;99.90
5128;DHT22;2582;48.770;9.190;2023-01-30T08:10:20;3.40;99.90
5128;DHT22;2582;48.770;9.190;2023-01-30T08:12:46;3.30;99.90
5128;DHT22;2582;48.770;9.190;2023-01-30T08:15:14;3.20;99.90
5128;DHT22;2582;48.770;9.190;2023-01-30T08:17:39;3.00;99.90
5128;DHT22;2582;48.770;9.190;2023-01-30T08:20:05;3.00;99.90
5128;DHT22;2582;48.770;9.190;2023-01-30T08:22:31;3.10;99.90
5128;DHT22;2582;48.770;9.190;2023-01-30T08:24:56;3.20;99.90
5128;DHT22;2582;48.770;9.190;2023-01-30T08:27:22;3.30;99.90
5128;DHT22;2582;48.770;9.190;2023-01-30T08:29:48;3.50;99.90
5128;DHT22;2582;48.770;9.190;2023-01-30T08:32:13;3.50;99.90
5128;DHT22;2582;48.770;9.190;2023-01-30T08:34:39;3.30;99.90
5128;DHT22;2582;48.770;9.190;2023-01-30T08:37:04;3.50;99.90
5128;DHT22;2582;48.770;9.190;2023-01-30T08:39:31;3.50;99.90
5128;DHT22;2582;48.770;9.190;2023-01-30T08:41:56;3.50;99.90
5128;DHT22;2582;48.770;9.190;2023-01-30T08:44:22;3.50;99.90
5128;DHT22;2582;48.770;9.190;2023-01-30T08:46:47;3.40;99.90
5128;DHT22;2582;48.770;9.190;2023-01-30T08:49:13;3.30;99.90
5128;DHT22;2582;48.770;9.190;2023-01-30T08:51:39;3.50;99.90
5128;DHT22;2582;48.770;9.190;2023-01-30T08:54:04;3.60;99.90
5128;DHT22;2582;48.770;9.190;2023-01-30T08:56:32;3.50;99.90
5128;DHT22;2582;48.770;9.190;2023-01-30T08:58:58;3.30;99.90
5128;DHT22;2582;48.770;9.190;2023-01-30T09:01:23;3.60;99.90
5128;DHT22;2582;48.770;9.190;2023-01-30T09:03:49;3.70;99.90
5128;DHT22;2582;48.770;9.190;2023-01-30T09:06:14;3.60;99.90
5128;DHT22;2582;48.770;9.190;2023-01-30T09:08:41;3.60;99.90
5128;DHT22;2582;48.770;9.190;2023-01-30T09:11:09;3.70;99.90
5128;DHT22;2582;48.770;9.190;2023-01-30T09:13:35;3.80;99.90
5128;DHT22;2582;48.770;9.190;2023-01-30T09:16:00;3.80;99.90
5128;DHT22;2582;48.770;9.190;2023-01-30T09:18:26;3.90;99.90
5128;DHT22;2582;48.770;9.190;2023-01-30T09:20:51;4.10;99.90
5128;DHT22;2582;48.770;9.190;2023-01-30T09:23:17;4.30;99.90
5128;DHT22;2582;48.770;9.190;2023-01-30T09:25:46;4.30;99.90
5128;DHT22;2582;48.770;9.190;2023-01-30T09:28:12;4.40;99.90
5128;DHT22;2582;48.770;9.190;2023-01-30T09:30:38;4.20;99.90
5128;DHT22;2582;48.770;9.190;2023-01-30T09:33:03;4.30;99.90
5128;DHT22;2582;48.770;9.190;2023-01-30T09:35:29;4.30;99.90
5128;DHT22;2582;48.770;9.190;2023-01-30T09:37:55;4.30;99.90
5128;DHT22;2582;48.770;9.190;2023-01-30T09:40:24;4.30;99.90
5128;DHT22;2582;48.770;9.190;2023-01-30T09:43:23;4.50;99.90
5128;DHT22;2582;48.770;9.190;2023-01-30T09:48:32;4.50;99.90
5128;DHT22;2582;48.770;9.190;2023-01-30T09:51:14;4.50;99.90
5128;DHT22;2582;48.770;9.190;2023-01-30T09:54:19;4.60;99.90
5128;DHT22;2582;48.770;9.190;2023-01-30T09:56:51;4.90;99.90
5128;DHT22;2582;48.770;9.190;2023-01-30T09:59:26;5.00;99.90
5128;DHT22;2582;48.770;9.190;2023-01-30T10:02:58;4.90;99.90
5128;DHT22;2582;48.770;9.190;2023-01-30T10:05:00;4.80;99.90
5128;DHT22;2582;48.770;9.190;2023-01-30T10:08:02;4.80;99.90
5128;DHT22;2582;48.770;9.190;2023-01-30T10:10:44;4.80;99.90
5128;DHT22;2582;48.770;9.190;2023-01-30T10:13:34;5.00;99.90
5128;DHT22;2582;48.770;9.190;2023-01-30T10:16:15;5.20;99.90
5128;DHT22;2582;48.770;9.190;2023-01-30T10:27:24;5.20;99.90
5128;DHT22;2582;48.770;9.190;2023-01-30T10:29:55;5.30;99.90
5128;DHT22;2582;48.770;9.190;2023-01-30T10:32:57;5.40;99.90
5128;DHT22;2582;48.770;9.190;2023-01-30T10:35:33;5.50;99.90
5128;DHT22;2582;48.770;9.190;2023-01-30T10:38:25;5.60;99.90
5128;DHT22;2582;48.770;9.190;2023-01-30T10:43:43;5.60;99.90
5128;DHT22;2582;48.770;9.190;2023-01-30T10:49:05;5.50;99.90
5128;DHT22;2582;48.770;9.190;2023-01-30T10:59:54;5.60;99.90
5128;DHT22;2582;48.770;9.190;2023-01-30T11:05:01;5.50;99.90
5128;DHT22;2582;48.770;9.190;2023-01-30T11:07:30;5.50;99.90
5128;DHT22;2582;48.770;9.190;2023-01-30T11:09:56;5.60;99.90
5128;DHT22;2582;48.770;9.190;2023-01-30T11:12:22;5.60;99.90
5128;DHT22;2582;48.770;9.190;2023-01-30T11:14:53;5.60;99.90
5128;DHT22;2582;48.770;9.190;2023-01-30T11:17:20;5.70;99.90
5128;DHT22;2582;48.770;9.190;2023-01-30T11:19:56;5.80;99.90
5128;DHT22;2582;48.770;9.190;2023-01-30T11:22:33;5.60;99.90
5128;DHT22;2582;48.770;9.190;2023-01-30T11:25:13;5.60;99.90
5128;DHT22;2582;48.770;9.190;2023-01-30T11:27:41;5.60;99.90
5128;DHT22;2582;48.770;9.190;2023-01-30T11:30:18;5.80;99.90
5128;DHT22;2582;48.770;9.190;2023-01-30T11:32:47;5.70;99.90
5128;DHT22;2582;48.770;9.190;2023-01-30T11:37:41;5.50;99.90
5128;DHT22;2582;48.770;9.190;2023-01-30T11:42:44;5.20;99.90
5128;DHT22;2582;48.770;9.190;2023-01-30T11:45:11;5.30;99.90
5128;DHT22;2582;48.770;9.190;2023-01-30T11:47:37;5.20;99.90
5128;DHT22;2582;48.770;9.190;2023-01-30T11:50:04;5.10;99.90
5128;DHT22;2582;48.770;9.190;2023-01-30T11:52:35;5.10;99.90
5128;DHT22;2582;48.770;9.190;2023-01-30T11:55:17;5.00;99.90
5128;DHT22;2582;48.770;9.190;2023-01-30T11:57:47;4.90;99.90
5128;DHT22;2582;48.770;9.190;2023-01-30T12:00:42;4.90;99.90
5128;DHT22;2582;48.770;9.190;2023-01-30T12:03:12;4.80;99.90
5128;DHT22;2582;48.770;9.190;2023-01-30T12:05:39;4.80;99.90
5128;DHT22;2582;48.770;9.190;2023-01-30T12:08:13;4.80;99.90
5128;DHT22;2582;48.770;9.190;2023-01-30T12:10:44;4.60;99.90
5128;DHT22;2582;48.770;9.190;2023-01-30T12:13:34;4.70;99.90
5128;DHT22;2582;48.770;9.190;2023-01-30T12:16:23;4.60;99.90
5128;DHT22;2582;48.770;9.190;2023-01-30T12:19:11;4.70;99.90
5128;DHT22;2582;48.770;9.190;2023-01-30T12:24:45;4.90;99.90
5128;DHT22;2582;48.770;9.190;2023-01-30T12:27:21;4.90;99.90
5128;DHT22;2582;48.770;9.190;2023-01-30T12:30:09;4.70;99.90
5128;DHT22;2582;48.770;9.190;2023-01-30T12:32:40;4.60;99.90
5128;DHT22;2582;48.770;9.190;2023-01-30T12:35:51;4.60;99.90
5128;DHT22;2582;48.770;9.190;2023-01-30T12:49:34;4.50;99.90
5128;DHT22;2582;48.770;9.190;2023-01-30T12:55:18;4.60;99.90
5128;DHT22;2582;48.770;9.190;2023-01-30T12:57:49;4.50;99.90
5128;DHT22;2582;48.770;9.190;2023-01-30T13:13:46;4.60;99.90
5128;DHT22;2582;48.770;9.190;2023-01-30T13:19:04;4.60;99.90
5128;DHT22;2582;48.770;9.190;2023-01-30T13:21:48;4.70;99.90
5128;DHT22;2582;48.770;9.190;2023-01-30T13:25:05;4.60;99.90
5128;DHT22;2582;48.770;9.190;2023-01-30T13:27:10;4.60;99.90
5128;DHT22;2582;48.770;9.190;2023-01-30T13:29:39;4.70;99.90
5128;DHT22;2582;48.770;9.190;2023-01-30T13:32:37;4.70;99.90
5128;DHT22;2582;48.770;9.190;2023-01-30T13:35:03;4.70;99.90
5128;DHT22;2582;48.770;9.190;2023-01-30T13:37:31;4.70;99.90
5128;DHT22;2582;48.770;9.190;2023-01-30T13:40:07;4.70;99.90
5128;DHT22;2582;48.770;9.190;2023-01-30T13:42:52;4.80;99.90
5128;DHT22;2582;48.770;9.190;2023-01-30T13:45:28;5.00;99.90
5128;DHT22;2582;48.770;9.190;2023-01-30T13:54:18;5.20;99.90
5128;DHT22;2582;48.770;9.190;2023-01-30T13:56:30;5.40;99.90
5128;DHT22;2582;48.770;9.190;2023-01-30T14:07:29;5.40;99.90
5128;DHT22;2582;48.770;9.190;2023-01-30T14:20:35;5.70;99.90
5128;DHT22;2582;48.770;9.190;2023-01-30T14:23:19;5.50;99.90
5128;DHT22;2582;48.770;9.190;2023-01-30T14:25:51;5.60;99.90
5128;DHT22;2582;48.770;9.190;2023-01-30T14:30:47;5.70;99.90
5128;DHT22;2582;48.770;9.190;2023-01-30T14:38:39;5.50;99.90
5128;DHT22;2582;48.770;9.190;2023-01-30T14:46:38;5.60;99.90
5128;DHT22;2582;48.770;9.190;2023-01-30T14:49:24;5.60;99.90
5128;DHT22;2582;48.770;9.190;2023-01-30T14:51:50;5.50;99.90
5128;DHT22;2582;48.770;9.190;2023-01-30T14:54:19;5.50;99.90
5128;DHT22;2582;48.770;9.190;2023-01-30T14:56:59;5.50;99.90
5128;DHT22;2582;48.770;9.190;2023-01-30T14:59:33;5.40;99.90
5128;DHT22;2582;48.770;9.190;2023-01-30T15:02:06;5.50;99.90
5128;DHT22;2582;48.770;9.190;2023-01-30T15:07:35;5.50;99.90
5128;DHT22;2582;48.770;9.190;2023-01-30T15:19:53;5.40;99.90
5128;DHT22;2582;48.770;9.190;2023-01-30T15:22:26;5.40;99.90
5128;DHT22;2582;48.770;9.190;2023-01-30T15:25:11;5.40;99.90
5128;DHT22;2582;48.770;9.190;2023-01-30T15:27:51;5.40;99.90
5128;DHT22;2582;48.770;9.190;2023-01-30T15:33:19;5.30;99.90
5128;DHT22;2582;48.770;9.190;2023-01-30T15:35:45;5.30;99.90
5128;DHT22;2582;48.770;9.190;2023-01-30T15:40:47;5.40;99.90
5128;DHT22;2582;48.770;9.190;2023-01-30T15:43:50;5.40;99.90
5128;DHT22;2582;48.770;9.190;2023-01-30T15:51:32;5.40;99.90
5128;DHT22;2582;48.770;9.190;2023-01-30T15:54:01;5.40;99.90
5128;DHT22;2582;48.770;9.190;2023-01-30T15:56:30;5.40;99.90
5128;DHT22;2582;48.770;9.190;2023-01-30T15:59:00;5.30;99.90
5128;DHT22;2582;48.770;9.190;2023-01-30T16:01:27;5.20;99.90
5128;DHT22;2582;48.770;9.190;2023-01-30T16:03:52;5.30;99.90
5128;DHT22;2582;48.770;9.190;2023-01-30T16:06:23;5.20;99.90
5128;DHT22;2582;48.770;9.190;2023-01-30T16:09:38;5.30;99.90
5128;DHT22;2582;48.770;9.190;2023-01-30T16:11:45;5.20;99.90
5128;DHT22;2582;48.770;9.190;2023-01-30T16:14:15;5.20;99.90
5128;DHT22;2582;48.770;9.190;2023-01-30T16:17:02;5.20;99.90
5128;DHT22;2582;48.770;9.190;2023-01-30T16:19:33;5.10;99.90
5128;DHT22;2582;48.770;9.190;2023-01-30T16:22:01;5.00;99.90
5128;DHT22;2582;48.770;9.190;2023-01-30T16:24:32;4.90;99.90
5128;DHT22;2582;48.770;9.190;2023-01-30T16:27:06;4.90;99.90
5128;DHT22;2582;48.770;9.190;2023-01-30T16:29:37;4.80;99.90
5128;DHT22;2582;48.770;9.190;2023-01-30T16:32:12;4.90;99.90
5128;DHT22;2582;48.770;9.190;2023-01-30T16:34:38;4.90;99.90
5128;DHT22;2582;48.770;9.190;2023-01-30T16:39:37;4.90;99.90
5128;DHT22;2582;48.770;9.190;2023-01-30T16:42:24;4.90;99.90
5128;DHT22;2582;48.770;9.190;2023-01-30T16:44:50;4.90;99.90
5128;DHT22;2582;48.770;9.190;2023-01-30T16:47:24;4.90;99.90
5128;DHT22;2582;48.770;9.190;2023-01-30T16:49:52;4.90;99.90
5128;DHT22;2582;48.770;9.190;2023-01-30T16:54:52;4.90;99.90
5128;DHT22;2582;48.770;9.190;2023-01-30T16:57:28;5.00;99.90
5128;DHT22;2582;48.770;9.190;2023-01-30T17:00:01;4.90;99.90
5128;DHT22;2582;48.770;9.190;2023-01-30T17:02:35;4.90;99.90
5128;DHT22;2582;48.770;9.190;2023-01-30T17:05:22;4.90;99.90
5128;DHT22;2582;48.770;9.190;2023-01-30T17:07:49;5.00;99.90
5128;DHT22;2582;48.770;9.190;2023-01-30T17:12:56;4.90;99.90
5128;DHT22;2582;48.770;9.190;2023-01-30T17:15:27;4.90;99.90
5128;DHT22;2582;48.770;9.190;2023-01-30T17:17:53;4.90;99.90
5128;DHT22;2582;48.770;9.190;2023-01-30T17:20:18;4.80;99.90
5128;DHT22;2582;48.770;9.190;2023-01-30T17:22:46;4.80;99.90
5128;DHT22;2582;48.770;9.190;2023-01-30T17:25:31;4.90;99.90
5128;DHT22;2582;48.770;9.190;2023-01-30T17:28:00;4.90;99.90
5128;DHT22;2582;48.770;9.190;2023-01-30T17:30:25;4.80;99.90
5128;DHT22;2582;48.770;9.190;2023-01-30T17:32:51;4.80;99.90
5128;DHT22;2582;48.770;9.190;2023-01-30T17:35:17;4.80;99.90
5128;DHT22;2582;48.770;9.190;2023-01-30T17:37:43;4.90;99.90
5128;DHT22;2582;48.770;9.190;2023-01-30T17:40:15;4.80;99.90
5128;DHT22;2582;48.770;9.190;2023-01-30T17:42:41;4.80;99.90
5128;DHT22;2582;48.770;9.190;2023-01-30T17:45:07;4.70;99.90
5128;DHT22;2582;48.770;9.190;2023-01-30T17:47:32;4.80;99.90
5128;DHT22;2582;48.770;9.190;2023-01-30T17:49:58;4.70;99.90
5128;DHT22;2582;48.770;9.190;2023-01-30T17:52:24;4.80;99.90
5128;DHT22;2582;48.770;9.190;2023-01-30T17:54:49;4.70;99.90
5128;DHT22;2582;48.770;9.190;2023-01-30T17:57:15;4.70;99.90
5128;DHT22;2582;48.770;9.190;2023-01-30T17:59:40;4.60;99.90
5128;DHT22;2582;48.770;9.190;2023-01-30T18:02:08;4.70;99.90
5128;DHT22;2582;48.770;9.190;2023-01-30T18:04:34;4.60;99.90
5128;DHT22;2582;48.770;9.190;2023-01-30T18:07:02;4.60;99.90
5128;DHT22;2582;48.770;9.190;2023-01-30T18:09:29;4.70;99.90
5128;DHT22;2582;48.770;9.190;2023-01-30T18:11:55;4.70;99.90
5128;DHT22;2582;48.770;9.190;2023-01-30T18:14:20;4.70;99.90
5128;DHT22;2582;48.770;9.190;2023-01-30T18:16:46;4.70;99.90
5128;DHT22;2582;48.770;9.190;2023-01-30T18:19:14;4.70;99.90
5128;DHT22;2582;48.770;9.190;2023-01-30T18:21:40;4.80;99.90
5128;DHT22;2582;48.770;9.190;2023-01-30T18:24:12;4.80;99.90
5128;DHT22;2582;48.770;9.190;2023-01-30T18:26:38;4.70;99.90
5128;DHT22;2582;48.770;9.190;2023-01-30T18:29:04;4.70;99.90
5128;DHT22;2582;48.770;9.190;2023-01-30T18:31:30;4.70;99.90
5128;DHT22;2582;48.770;9.190;2023-01-30T18:33:56;4.70;99.90
5128;DHT22;2582;48.770;9.190;2023-01-30T18:36:22;4.70;99.90
5128;DHT22;2582;48.770;9.190;2023-01-30T18:38:48;4.70;99.90
5128;DHT22;2582;48.770;9.190;2023-01-30T18:41:14;4.70;99.90
5128;DHT22;2582;48.770;9.190;2023-01-30T18:43:41;4.80;99.90
5128;DHT22;2582;48.770;9.190;2023-01-30T18:46:12;4.90;99.90
5128;DHT22;2582;48.770;9.190;2023-01-30T18:48:39;5.00;99.90
5128;DHT22;2582;48.770;9.190;2023-01-30T18:51:07;5.00;99.90
5128;DHT22;2582;48.770;9.190;2023-01-30T18:53:33;5.10;99.90
5128;DHT22;2582;48.770;9.190;2023-01-30T18:55:59;5.10;99.90
5128;DHT22;2582;48.770;9.190;2023-01-30T18:58:29;5.10;99.90
5128;DHT22;2582;48.770;9.190;2023-01-30T19:00:56;5.00;99.90
5128;DHT22;2582;48.770;9.190;2023-01-30T19:03:22;5.00;99.90
5128;DHT22;2582;48.770;9.190;2023-01-30T19:05:48;4.90;99.90
5128;DHT22;2582;48.770;9.190;2023-01-30T19:08:13;4.80;99.90
5128;DHT22;2582;48.770;9.190;2023-01-30T19:10:39;4.80;99.90
5128;DHT22;2582;48.770;9.190;2023-01-30T19:13:05;4.80;99.90
5128;DHT22;2582;48.770;9.190;2023-01-30T19:15:49;4.80;99.90
5128;DHT22;2582;48.770;9.190;2023-01-30T19:18:14;4.70;99.90
5128;DHT22;2582;48.770;9.190;2023-01-30T19:20:40;4.70;99.90